Time;durP1;ratioP1;P1;durP2;ratioP2;P2;SDS_P1;SDS_P2;PMS_P1;PMS_P2;Temp;Humidity;BMP_temperature;BMP_pressure;BME280_temperature;BME280_humidity;BME280_pressure;Samples;Min_cycle;Max_cycle;Signal;HPM_P1;HPM_P2
2023/05/29 00:01:54;;;;;;;7.10;3.40;;;;;;;8.38;68.84;100886.35;105532;1254;75150;-61
2023/05/29 00:04:25;;;;;;;6.30;3.00;;;;;;;8.36;69.06;100881.15;105523;1254;82311;-61
2023/05/29 00:07:00;;;;;;;4.80;2.80;;;;;;;8.33;68.84;100880.36;105511;1254;73618;-62
2023/05/29 00:09:31;;;;;;;7.30;3.20;;;;;;;8.31;69.60;100877.23;105559;1254;69211;-61
2023/05/29 00:12:02;;;;;;;7.40;3.30;;;;;;;8.32;69.68;100879.33;105569;1256;69124;-64
2023/05/29 00:14:34;;;;;;;5.60;2.90;;;;;;;8.31;69.69;100876.73;105586;1254;74863;-62
2023/05/29 00:17:12;;;;;;;4.60;2.60;;;;;;;8.32;70.34;100873.73;105590;1256;83302;-64
2023/05/29 00:19:47;;;;;;;4.40;2.80;;;;;;;8.36;70.55;100872.29;105515;1254;73895;-63
2023/05/29 00:22:19;;;;;;;5.70;3.30;;;;;;;8.41;70.42;100872.73;105534;1256;69125;-61
2023/05/29 00:24:53;;;;;;;6.70;3.20;;;;;;;8.40;70.40;100875.71;105541;1254;69090;-61
2023/05/29 00:27:27;;;;;;;6.20;3.00;;;;;;;8.38;70.31;100876.08;105560;1254;74888;-62
2023/05/29 00:29:58;;;;;;;7.40;3.30;;;;;;;8.31;70.35;100874.47;105555;1253;83431;-61
2023/05/29 00:32:32;;;;;;;7.50;3.00;;;;;;;8.29;70.52;100875.55;105594;1254;72743;-61
2023/05/29 00:35:04;;;;;;;6.50;3.20;;;;;;;8.24;70.28;100872.34;105548;1253;69224;-62
2023/05/29 00:37:36;;;;;;;5.20;2.80;;;;;;;8.20;70.58;100873.10;105511;1255;69169;-65
2023/05/29 00:40:15;;;;;;;5.20;2.80;;;;;;;8.17;70.57;100875.43;105526;1254;75033;-63
2023/05/29 19:53:13;;;;;;;5.80;2.90;;;;;;;14.45;51.78;100954.29;106640;1247;75136;31
2023/05/29 19:55:42;;;;;;;5.00;3.20;;;;;;;14.36;52.02;100955.38;104981;1259;83673;-58
2023/05/29 19:58:10;;;;;;;4.10;2.90;;;;;;;14.28;52.68;100959.23;105095;1262;72710;-58
2023/05/29 20:00:38;;;;;;;3.90;3.00;;;;;;;14.20;53.12;100961.34;105066;1262;69237;-59
2023/05/29 20:03:07;;;;;;;5.00;3.60;;;;;;;14.12;53.54;100964.48;105083;1262;69123;-59
2023/05/29 20:05:36;;;;;;;5.40;3.20;;;;;;;14.09;54.04;100966.23;105078;1260;74776;-59
2023/05/29 20:08:04;;;;;;;5.80;3.20;;;;;;;14.01;54.36;100965.83;105183;1260;81461;-58
2023/05/29 20:10:32;;;;;;;4.70;2.80;;;;;;;13.97;54.60;100967.27;105066;1258;73155;-59
2023/05/29 20:13:01;;;;;;;4.90;3.10;;;;;;;13.92;54.90;100966.77;105134;1262;69132;-59
2023/05/29 20:15:29;;;;;;;5.60;3.20;;;;;;;13.83;55.16;100966.58;105128;1262;69166;-59
2023/05/29 20:17:58;;;;;;;6.50;3.00;;;;;;;13.78;55.51;100967.15;105136;1262;75049;-59
2023/05/29 20:20:26;;;;;;;4.30;2.80;;;;;;;13.75;55.70;100970.62;105027;1260;82047;-60
2023/05/29 20:22:54;;;;;;;6.90;2.60;;;;;;;13.70;55.95;100970.66;105099;1260;73193;-60
2023/05/29 20:25:26;;;;;;;7.50;3.00;;;;;;;13.64;56.10;100971.23;105087;1257;69178;-61
2023/05/29 20:27:54;;;;;;;5.10;2.70;;;;;;;13.59;56.40;100967.60;105080;1262;69198;-63
2023/05/29 20:30:23;;;;;;;4.00;2.80;;;;;;;13.55;56.64;100970.02;105070;1260;75000;-60
2023/05/29 20:32:51;;;;;;;4.30;2.70;;;;;;;13.51;56.75;100974.23;105057;1262;83512;-60
2023/05/29 20:35:20;;;;;;;4.70;3.20;;;;;;;13.47;56.91;100977.71;105194;1260;73739;-60
2023/05/29 20:37:51;;;;;;;5.80;3.00;;;;;;;13.44;57.03;100983.10;105136;1260;69200;-60
2023/05/29 20:40:21;;;;;;;6.70;3.10;;;;;;;13.41;57.28;100984.09;105062;1261;69222;-60
2023/05/29 20:42:50;;;;;;;6.10;2.80;;;;;;;13.36;57.49;100987.12;105117;1262;74578;-60
2023/05/29 20:45:18;;;;;;;5.40;2.70;;;;;;;13.31;57.83;100983.09;105038;1260;82688;-60
2023/05/29 20:47:47;;;;;;;5.10;2.60;;;;;;;13.27;57.89;100987.11;105087;1260;73702;-60
2023/05/29 20:50:15;;;;;;;5.40;2.80;;;;;;;13.23;58.11;100988.09;105144;1262;69192;-59
2023/05/29 20:52:43;;;;;;;4.70;3.10;;;;;;;13.21;58.35;100990.98;105063;1260;69186;-60
2023/05/29 20:55:12;;;;;;;4.70;2.80;;;;;;;13.20;58.62;100990.15;105042;1259;75383;-60
2023/05/29 20:57:40;;;;;;;5.80;2.50;;;;;;;13.21;58.79;100992.05;105054;1260;82502;-61
2023/05/29 21:00:12;;;;;;;3.40;2.30;;;;;;;13.22;58.83;100987.64;104999;1260;72751;-61
2023/05/29 21:02:40;;;;;;;5.30;2.90;;;;;;;13.21;59.11;100994.16;105013;1262;69186;-61
2023/05/29 21:05:09;;;;;;;3.90;2.30;;;;;;;13.20;59.22;100995.44;105115;1260;69230;-61
2023/05/29 21:07:37;;;;;;;7.30;3.10;;;;;;;13.17;59.60;100995.85;105130;1262;73744;-61
2023/05/29 21:10:07;;;;;;;6.90;3.10;;;;;;;13.16;59.64;100994.69;105081;1260;82523;-61
2023/05/29 21:12:35;;;;;;;6.10;3.00;;;;;;;13.17;59.50;100996.76;105075;1262;72744;-61
2023/05/29 21:15:05;;;;;;;6.40;3.10;;;;;;;13.18;59.49;100997.60;105069;1260;69094;-60
2023/05/29 21:17:33;;;;;;;6.20;3.10;;;;;;;13.22;59.56;100998.14;105055;1260;69215;-60
2023/05/29 21:20:04;;;;;;;6.70;3.60;;;;;;;13.24;59.57;100997.02;105140;1260;73927;-60
2023/05/29 21:22:33;;;;;;;6.00;3.70;;;;;;;13.22;59.51;100995.88;105086;1260;84334;-60
2023/05/29 21:25:01;;;;;;;4.70;3.10;;;;;;;13.20;59.99;100993.69;105102;1260;73888;-60
2023/05/29 21:27:29;;;;;;;5.60;3.20;;;;;;;13.17;59.99;100995.88;105094;1260;69525;-60
2023/05/29 21:29:58;;;;;;;8.90;3.60;;;;;;;13.14;59.76;100994.75;105051;1263;69107;-60
2023/05/29 21:32:27;;;;;;;9.10;3.30;;;;;;;13.17;59.04;100992.73;105114;1260;74720;-60
2023/05/29 21:34:57;;;;;;;6.90;3.30;;;;;;;13.24;58.57;100994.73;105109;1260;82578;-61
2023/05/29 21:37:25;;;;;;;9.00;3.50;;;;;;;13.30;58.49;100995.75;105124;1260;72667;-60
2023/05/29 21:39:53;;;;;;;6.70;3.00;;;;;;;13.35;58.17;100996.44;105082;1260;69093;-60
2023/05/29 21:42:22;;;;;;;6.80;3.60;;;;;;;13.39;57.91;100997.87;105078;1259;69192;-60
2023/05/29 21:44:50;;;;;;;5.30;3.70;;;;;;;13.42;57.61;100999.33;105148;1260;75300;-60
2023/05/29 21:47:19;;;;;;;8.30;3.40;;;;;;;13.45;58.02;101000.27;105112;1262;81556;-60
2023/05/29 21:49:47;;;;;;;4.50;2.70;;;;;;;13.46;57.95;101001.45;105064;1260;73619;-60
2023/05/29 21:52:16;;;;;;;5.50;3.20;;;;;;;13.44;58.33;101003.83;105143;1260;69072;-60
2023/05/29 21:54:44;;;;;;;5.60;3.50;;;;;;;13.41;58.25;101002.55;105080;1262;69145;-60
2023/05/29 21:57:15;;;;;;;5.70;3.20;;;;;;;13.38;58.76;101007.21;105060;1262;75042;-60
2023/05/29 21:59:44;;;;;;;5.70;3.50;;;;;;;13.35;58.17;101006.79;105096;1262;82515;-60
2023/05/29 22:02:12;;;;;;;6.70;3.50;;;;;;;13.34;58.68;101003.67;105060;1262;73521;-60
2023/05/29 22:04:41;;;;;;;6.00;3.40;;;;;;;13.30;58.85;101006.30;105147;1262;69228;-60
2023/05/29 22:07:09;;;;;;;5.10;3.30;;;;;;;13.25;59.01;101009.63;105106;1262;69209;-61
2023/05/29 22:09:38;;;;;;;6.50;3.20;;;;;;;13.17;59.05;101010.27;105106;1262;73289;-60
2023/05/29 22:12:07;;;;;;;8.20;3.70;;;;;;;13.13;58.94;101011.30;105061;1262;83395;-60
2023/05/29 22:14:36;;;;;;;6.80;3.30;;;;;;;13.12;58.72;101011.31;105119;1261;74078;-60
2023/05/29 22:17:04;;;;;;;9.60;3.80;;;;;;;13.11;58.75;101012.77;105124;1262;69183;-60
2023/05/29 22:19:33;;;;;;;5.80;3.50;;;;;;;13.10;59.14;101015.80;105057;1261;69210;-60
2023/05/29 22:22:02;;;;;;;6.30;3.70;;;;;;;13.08;59.07;101018.34;105162;1262;75327;-60
2023/05/29 22:24:31;;;;;;;9.40;3.60;;;;;;;13.04;58.99;101019.88;105108;1262;83069;-61
2023/05/29 22:26:59;;;;;;;9.90;3.80;;;;;;;13.02;59.03;101022.75;105141;1262;74159;-60
2023/05/29 22:29:27;;;;;;;8.20;4.00;;;;;;;12.99;59.00;101024.82;105082;1260;69252;-60
2023/05/29 22:31:56;;;;;;;8.10;3.40;;;;;;;12.95;58.75;101025.64;105117;1260;69113;-60
2023/05/29 22:34:24;;;;;;;4.80;3.40;;;;;;;12.94;58.70;101025.68;105134;1262;73818;-60
2023/05/29 22:36:53;;;;;;;4.90;3.50;;;;;;;12.92;58.85;101029.09;105062;1262;83339;-60
2023/05/29 22:39:22;;;;;;;9.40;3.40;;;;;;;12.89;58.95;101027.26;105099;1261;73686;-60
2023/05/29 22:41:50;;;;;;;8.90;4.00;;;;;;;12.85;59.15;101032.33;105034;1260;69190;-60
2023/05/29 22:44:18;;;;;;;9.30;4.30;;;;;;;12.81;59.06;101033.55;105020;1260;69119;-60
2023/05/29 22:46:46;;;;;;;7.90;3.40;;;;;;;12.76;58.86;101032.31;105049;1262;75126;-60
2023/05/29 22:49:15;;;;;;;6.90;3.40;;;;;;;12.72;59.05;101031.23;105169;1262;83316;-60
2023/05/29 22:51:44;;;;;;;5.00;3.10;;;;;;;12.69;58.96;101031.16;105121;1262;72742;-61
2023/05/29 22:54:12;;;;;;;5.90;3.40;;;;;;;12.66;58.79;101027.23;105052;1263;69181;-60
2023/05/29 22:56:41;;;;;;;5.00;3.20;;;;;;;12.64;59.10;101029.39;105076;1258;69106;-60
2023/05/29 22:59:09;;;;;;;8.70;3.60;;;;;;;12.61;59.59;101027.08;105128;1262;74910;-60
2023/05/29 23:01:37;;;;;;;7.30;3.70;;;;;;;12.55;59.66;101029.72;105098;1262;83741;-60
2023/05/29 23:04:06;;;;;;;7.50;3.60;;;;;;;12.50;59.73;101029.39;105085;1260;73541;-60
2023/05/29 23:06:34;;;;;;;7.40;3.50;;;;;;;12.43;59.54;101027.52;105092;1260;69225;-61
2023/05/29 23:09:04;;;;;;;6.20;3.30;;;;;;;12.37;59.42;101027.38;105074;1260;69177;-60
2023/05/29 23:11:32;;;;;;;8.50;3.60;;;;;;;12.32;59.42;101026.14;105162;1262;75114;-60
2023/05/29 23:14:00;;;;;;;8.30;3.90;;;;;;;12.25;59.64;101027.23;105024;1260;83968;-60
2023/05/29 23:16:28;;;;;;;10.20;4.50;;;;;;;12.18;59.69;101023.82;105068;1262;72832;-60
2023/05/29 23:18:57;;;;;;;11.30;3.60;;;;;;;12.11;59.78;101025.11;105068;1262;69260;-60
2023/05/29 23:21:26;;;;;;;8.20;3.70;;;;;;;12.04;60.09;101023.22;105120;1262;69230;-61
2023/05/29 23:23:55;;;;;;;5.50;3.30;;;;;;;12.00;60.14;101018.44;105061;1263;73455;-60
2023/05/29 23:26:23;;;;;;;8.60;3.30;;;;;;;11.98;60.41;101019.23;105124;1260;83299;-60
2023/05/29 23:28:52;;;;;;;8.00;3.30;;;;;;;11.95;60.50;101017.73;105012;1260;72695;-60
2023/05/29 23:31:20;;;;;;;9.10;4.00;;;;;;;11.93;60.58;101018.50;105080;1259;69097;-60
2023/05/29 23:33:49;;;;;;;6.70;3.50;;;;;;;11.91;60.73;101028.04;105066;1262;69173;-60
2023/05/29 23:36:17;;;;;;;8.30;3.30;;;;;;;11.88;60.73;101026.73;105135;1260;75010;-60
2023/05/29 23:38:45;;;;;;;8.50;3.70;;;;;;;11.86;60.95;101028.71;105103;1260;82515;-60
2023/05/29 23:41:13;;;;;;;6.00;3.60;;;;;;;11.84;61.00;101030.48;105015;1261;73804;-61
2023/05/29 23:43:42;;;;;;;7.00;3.50;;;;;;;11.81;61.04;101032.52;105005;1258;69256;-60
2023/05/29 23:46:11;;;;;;;8.00;3.90;;;;;;;11.77;61.02;101031.08;105080;1261;69113;-60
2023/05/29 23:48:40;;;;;;;7.30;3.70;;;;;;;11.74;61.32;101034.30;105066;1263;74700;-60
2023/05/29 23:51:09;;;;;;;9.80;4.20;;;;;;;11.72;61.46;101031.75;105140;1260;83523;-60
2023/05/29 23:53:37;;;;;;;10.50;4.40;;;;;;;11.71;61.67;101032.33;105061;1262;74089;-60
2023/05/29 23:56:06;;;;;;;8.10;4.10;;;;;;;11.68;61.66;101028.76;105016;1262;69301;-61
2023/05/29 23:58:34;;;;;;;7.30;3.90;;;;;;;11.63;61.77;101031.53;105080;1263;69292;-61
